Main page
Satellite images 10-day forecastsClimateMarine weather Cyclones Lightning AirportsFAQ Newsletter About
Weather : Europe Africa North America South America Asia Australia-Oceania Others
Languages Contact

Gloucester, England

Gloucestershire Airport

latitude: 51-54N, longitude: 002-10W, elevation: 29 m


METAR: EGBJ 291820Z 25004KT CAVOK 22/12 Q1021
TAF: EGBJ 291359Z 2915/2919 24008KT 9999 FEW035

Time: 04:27 (03:27 UTC)

Current weather observation

The report was made 9 hours and 7 minutes ago, at 18:20 UTC
Wind 4 kt from the West/Southwest
Temperature 22°C
Humidity 53%
Pressure 1021 hPa
Visibility 10 km or more
no clouds below 1500 m and no cumulonimbus

Change units

Forecast

The report was made 13 hours and 28 minutes ago, at 13:59 UTC
Forecast valid from 29 at 15 UTC to 29 at 19 UTC
Wind 8 kt from the West/Southwest
Visibility 10 km or more
Few clouds at a height of 3500 ft
The information on this site is subject to a disclaimer
Weather : Europe Africa North America South America Asia Australia-Oceania Others
Satellite images 10-day forecastsClimateMarine weather Cyclones Lightning AirportsFAQ Languages Contact Newsletter About